Terminal Aerodrome Forecast
Issued by NWS

Current Version | Previous Version | Text Only | Print | Product List | Glossary On
Versions: 1 2 3 4 5 6 7 8 9 10 11 12 13 14 15 16 17 18 19 20 21 22 23 24 25 26 27 28 29 30 31 32 33 34 35 36
000
FTUS41 KGYX 260016 AAA
TAFMHT
TAF AMD
KMHT 260016Z 2600/2624 VRB04KT P6SM VCSH BKN050 OVC100
     FM260200 VRB03KT 5SM BR SCT080 BKN200
     FM261300 30010G18KT P6SM SCT040=

USA.gov is the U.S. government's official web portal to all federal, state and local government web resources and services.